CheckWX is a tool to help pilots better visualize weather data.  It is not intended as a substitute for an official pre-flight weather briefing.

03:01:31 UTC

OOMS TAF
Muscat International Airport
Muscat, Oman
TAF OOMS 182300Z 1900/2006 VRB02KT 8000 NSC TEMPO 1900/1904 5000 BR SCT015 PROB30 TEMPO 1900/1903 1000 FG BKN010 BECMG 1906/1908 05015KT BECMG 1917/1919 VRB02KT

Jun-19@
00:00 UTC

Jun-19 @ 00:00 UTC

Jun-19@
06:00 UTC

Jun-19 @ 06:00 UTC

TAF OOMS 182300Z 1900/2006 VRB02KT 8000 NSC
Wind
  • Variable at 2 KTS
Cloud Levels
  • No significant clouds

Jun-19@
00:00 UTC

Jun-19 @ 00:00 UTC

Jun-19@
03:00 UTC

Jun-19 @ 03:00 UTC

PROB30 TEMPO 1900/1903 1000 FG BKN010

Expired

Conditions
Fog
Cloud Levels
  • Broken at 1,000' AGL

Jun-19@
00:00 UTC

Jun-19 @ 00:00 UTC

Jun-19@
04:00 UTC

Jun-19 @ 04:00 UTC

TEMPO 1900/1904 5000 BR SCT015

Temporary

Temporary Changes expected for less than half the time period

Conditions
Mist
Cloud Levels
  • Scattered at 1,500' AGL

Jun-19@
06:00 UTC

Jun-19 @ 06:00 UTC

Jun-19@
17:00 UTC

Jun-19 @ 17:00 UTC

BECMG 1906/1908 05015KT

Becoming

Becoming Conditions expected by Wed, Jun 19, 2019 @ 08:00 UTC

Wind
  • 050° at 15 KTS
Cloud Levels
  • No significant clouds

Jun-19@
17:00 UTC

Jun-19 @ 17:00 UTC

Jun-20@
06:00 UTC

Jun-20 @ 06:00 UTC

BECMG 1917/1919 VRB02KT

Becoming

Becoming Conditions expected by Wed, Jun 19, 2019 @ 19:00 UTC

Wind
  • Variable at 2 KTS
Cloud Levels
  • No significant clouds